Terminal Aerodrome Forecast
Issued by NWS

Home | Current Version | Previous Version | Text Only | Print | Product List | Glossary On
Versions: 1 2 3 4 5 6 7 8 9 10 11 12 13 14 15 16 17 18
164
FTUS41 KPBZ 071723
TAFAGC
TAF
KAGC 071723Z 0718/0818 19008KT P6SM SKC
     FM080000 16005KT P6SM BKN120
     FM081700 14005KT P6SM -RA OVC035=

USA.gov is the U.S. government's official web portal to all federal, state and local government web resources and services.